Time;durP1;ratioP1;P1;durP2;ratioP2;P2;SDS_P1;SDS_P2;PMS_P1;PMS_P2;Temp;Humidity;BMP_temperature;BMP_pressure;BME280_temperature;BME280_humidity;BME280_pressure;Samples;Min_cycle;Max_cycle;Signal;HPM_P1;HPM_P2
2022/07/28 00:00:06;;;;;;;4.90;2.20;;;16.80;72.90;;;;;;5092619;28;20024;-77
2022/07/28 00:02:32;;;;;;;4.45;2.28;;;16.80;72.60;;;;;;5093777;28;20056;-78
2022/07/28 00:04:58;;;;;;;5.38;2.08;;;16.80;72.60;;;;;;5093963;28;20047;-78
2022/07/28 00:07:23;;;;;;;4.35;2.20;;;16.70;73.40;;;;;;5094011;28;20024;-77
2022/07/28 00:09:49;;;;;;;5.90;2.38;;;16.70;73.90;;;;;;5093924;28;20103;-77
2022/07/28 00:12:15;;;;;;;3.42;2.53;;;16.70;74.60;;;;;;5093855;28;20024;-71
2022/07/28 00:14:41;;;;;;;4.68;2.67;;;16.70;74.40;;;;;;5092297;28;20017;-71
2022/07/28 00:17:07;;;;;;;2.75;1.83;;;16.70;75.40;;;;;;5093728;28;20043;-78
2022/07/28 00:19:33;;;;;;;7.25;3.33;;;16.70;76.60;;;;;;5093592;28;20020;-77
2022/07/28 00:21:59;;;;;;;3.28;2.38;;;16.70;77.00;;;;;;5093693;28;20054;-78
2022/07/28 00:24:24;;;;;;;5.43;2.75;;;16.80;76.20;;;;;;5093853;28;20023;-78
2022/07/28 00:26:50;;;;;;;5.05;2.03;;;16.80;76.30;;;;;;5092364;28;20028;-77
2022/07/28 00:29:16;;;;;;;4.72;2.08;;;16.80;76.90;;;;;;5093563;28;20020;-77
2022/07/28 00:31:42;;;;;;;5.10;2.35;;;16.80;76.40;;;;;;5092179;28;20028;-71
2022/07/28 00:34:08;;;;;;;3.78;2.78;;;16.90;76.10;;;;;;5093559;28;20031;-72
2022/07/28 00:36:33;;;;;;;4.80;3.05;;;17.00;76.00;;;;;;5092344;28;20477;-72
2022/07/28 00:38:59;;;;;;;6.50;2.80;;;16.90;77.20;;;;;;5093429;28;20031;-77
2022/07/28 00:41:25;;;;;;;7.45;4.10;;;16.90;77.20;;;;;;5093192;28;20064;-71
2022/07/28 00:43:51;;;;;;;4.88;3.50;;;16.90;78.10;;;;;;5093286;28;20027;-77
2022/07/28 00:46:19;;;;;;;5.20;2.35;;;16.90;78.90;;;;;;5092201;28;20073;-71
2022/07/28 00:48:49;;;;;;;3.50;2.30;;;16.90;76.30;;;;;;5093409;28;20032;-70
2022/07/28 00:51:16;;;;;;;4.13;1.98;;;16.80;75.70;;;;;;5092929;28;20016;-70
2022/07/28 00:53:43;;;;;;;4.85;2.28;;;16.60;75.60;;;;;;5093407;28;20482;-70
2022/07/28 00:56:08;;;;;;;3.97;2.70;;;16.60;76.10;;;;;;5093079;28;20546;-71
2022/07/28 00:58:36;;;;;;;5.15;2.22;;;16.60;76.60;;;;;;5093162;28;20024;-77
2022/07/28 01:01:03;;;;;;;6.65;2.17;;;16.50;76.70;;;;;;5091639;28;20066;-70
2022/07/28 01:03:31;;;;;;;5.13;2.40;;;16.50;76.60;;;;;;5094834;28;20024;-70
2022/07/28 01:06:15;;;;;;;3.10;2.75;;;16.50;76.90;;;;;;5097429;28;20028;-70
2022/07/28 01:09:11;;;;;;;4.03;2.05;;;16.40;77.20;;;;;;5097391;28;20483;-77
2022/07/28 01:11:43;;;;;;;3.97;2.58;;;16.50;78.60;;;;;;5097212;28;20091;-77
2022/07/28 01:14:54;;;;;;;4.85;2.40;;;16.50;77.00;;;;;;5097283;28;20020;-77
2022/07/28 01:17:46;;;;;;;7.72;2.35;;;16.50;76.00;;;;;;5092330;28;20501;-77
2022/07/28 01:20:37;;;;;;;3.63;2.22;;;16.50;76.30;;;;;;5095727;28;20473;-70
2022/07/28 01:23:06;;;;;;;4.00;2.42;;;16.50;77.40;;;;;;5096618;28;20044;-78
2022/07/28 01:26:12;;;;;;;4.63;2.05;;;16.50;76.70;;;;;;5095535;28;20020;-71
2022/07/28 01:28:57;;;;;;;4.05;2.28;;;16.40;77.50;;;;;;5096965;28;20035;-78
2022/07/28 01:31:26;;;;;;;5.00;2.50;;;16.50;77.10;;;;;;5096869;28;20016;-77
2022/07/28 01:33:58;;;;;;;5.57;3.25;;;16.40;77.40;;;;;;5096907;28;20020;-78
2022/07/28 01:36:40;;;;;;;4.13;2.63;;;16.40;78.10;;;;;;5096863;28;20020;-70
2022/07/28 01:39:06;;;;;;;4.65;2.20;;;16.30;77.80;;;;;;5095347;28;20073;-77
2022/07/28 01:41:33;;;;;;;4.40;2.35;;;16.30;76.60;;;;;;5096530;28;20028;-71
2022/07/28 01:44:05;;;;;;;3.95;2.55;;;16.20;77.50;;;;;;5095115;28;20059;-70
2022/07/28 01:46:32;;;;;;;4.82;2.10;;;16.20;77.80;;;;;;5096630;28;20081;-77
2022/07/28 01:49:01;;;;;;;8.10;3.25;;;16.10;77.70;;;;;;5096558;28;20125;-77
2022/07/28 01:51:29;;;;;;;8.25;3.03;;;16.00;78.60;;;;;;5096161;28;20189;-70
2022/07/28 01:53:58;;;;;;;7.28;2.08;;;16.00;79.70;;;;;;5095120;28;20485;-77
2022/07/28 01:56:29;;;;;;;8.10;2.47;;;16.00;79.50;;;;;;5096385;28;20124;-77
2022/07/28 01:58:57;;;;;;;6.28;2.45;;;15.80;78.90;;;;;;5095267;28;20028;-77
2022/07/28 02:01:24;;;;;;;6.93;2.90;;;15.70;79.70;;;;;;5094910;28;20058;-77
2022/07/28 02:03:52;;;;;;;6.18;2.65;;;15.70;80.40;;;;;;5096267;28;20026;-77
2022/07/28 02:06:20;;;;;;;6.05;2.55;;;15.60;80.90;;;;;;5094893;28;20028;-70
2022/07/28 02:08:48;;;;;;;5.07;2.65;;;15.60;81.20;;;;;;5096174;28;20024;-71
2022/07/28 02:13:58;;;;;;;4.93;2.75;;;15.50;81.60;;;;;;5095818;28;20562;-77
2022/07/28 02:16:25;;;;;;;5.10;2.72;;;15.40;80.70;;;;;;5094610;28;20056;-76
2022/07/28 02:18:54;;;;;;;3.80;2.40;;;15.40;81.00;;;;;;5096105;28;20465;-70
2022/07/28 02:21:21;;;;;;;4.50;2.20;;;15.40;80.70;;;;;;5094445;28;20024;-71
2022/07/28 02:23:49;;;;;;;5.15;2.08;;;15.30;81.10;;;;;;5096075;28;20046;-71
2022/07/28 02:26:17;;;;;;;3.80;2.65;;;15.30;80.70;;;;;;5095804;28;20024;-70
2022/07/28 02:28:50;;;;;;;6.57;2.08;;;15.20;81.30;;;;;;5095688;28;20401;-77
2022/07/28 02:31:23;;;;;;;2.53;2.15;;;15.20;81.70;;;;;;5095696;28;20016;-77
2022/07/28 02:33:51;;;;;;;3.85;1.88;;;15.20;80.60;;;;;;5095759;28;20110;-76
2022/07/28 02:36:29;;;;;;;4.65;2.33;;;15.10;79.30;;;;;;5095523;28;20028;-70
2022/07/28 02:39:02;;;;;;;5.40;2.00;;;15.10;80.00;;;;;;5094307;28;20099;-77
2022/07/28 02:41:31;;;;;;;4.85;3.25;;;15.10;79.70;;;;;;5095259;28;20040;-71
2022/07/28 02:44:00;;;;;;;3.13;2.08;;;15.10;80.60;;;;;;5095404;28;20111;-70
2022/07/28 02:46:37;;;;;;;4.88;2.40;;;15.10;80.00;;;;;;5095451;28;20473;-77
2022/07/28 02:49:07;;;;;;;3.67;2.25;;;15.00;80.30;;;;;;5095436;28;20103;-77
2022/07/28 02:51:34;;;;;;;3.58;2.15;;;15.00;80.60;;;;;;5095029;28;20032;-71
2022/07/28 02:54:02;;;;;;;3.33;1.63;;;15.10;81.30;;;;;;5095593;28;20020;-78
2022/07/28 02:56:29;;;;;;;3.53;1.95;;;15.00;80.20;;;;;;5095217;28;20035;-78
2022/07/28 02:58:56;;;;;;;9.93;2.10;;;15.00;80.30;;;;;;5093936;28;20119;-71
2022/07/28 03:01:22;;;;;;;6.18;2.08;;;14.90;80.20;;;;;;5093708;28;20024;-70
2022/07/28 03:03:49;;;;;;;5.10;1.88;;;14.90;80.50;;;;;;5093852;28;20012;-70
2022/07/28 03:06:16;;;;;;;6.90;2.13;;;14.90;80.20;;;;;;5093610;28;20489;-71
2022/07/28 03:08:42;;;;;;;4.10;2.10;;;15.00;79.90;;;;;;5095032;28;20084;-77
2022/07/28 03:11:09;;;;;;;4.03;2.28;;;14.90;80.10;;;;;;5093491;28;20016;-77
2022/07/28 03:13:36;;;;;;;6.25;2.60;;;15.00;79.80;;;;;;5093535;28;20020;-77
2022/07/28 03:16:03;;;;;;;2.90;2.15;;;14.90;79.80;;;;;;5093440;28;20039;-70
2022/07/28 03:18:29;;;;;;;4.88;2.33;;;14.90;79.50;;;;;;5094766;28;20114;-70
2022/07/28 03:20:55;;;;;;;5.00;2.58;;;14.90;80.20;;;;;;5093553;28;20044;-71
2022/07/28 03:23:27;;;;;;;4.78;2.53;;;14.80;80.00;;;;;;5093152;28;20121;-70
2022/07/28 03:25:56;;;;;;;8.07;2.77;;;14.80;80.10;;;;;;5093960;28;20418;-70
2022/07/28 03:28:23;;;;;;;3.72;1.75;;;14.80;80.70;;;;;;5094501;28;20043;-78
2022/07/28 03:30:59;;;;;;;6.35;2.30;;;14.70;81.10;;;;;;5094406;28;20377;-78
2022/07/28 03:33:26;;;;;;;2.50;2.00;;;14.80;82.00;;;;;;5093171;28;20032;-77
2022/07/28 03:35:55;;;;;;;3.78;2.05;;;14.70;82.20;;;;;;5093229;28;20028;-78
2022/07/28 03:38:47;;;;;;;4.38;3.08;;;14.70;82.90;;;;;;5093026;28;20048;-76
2022/07/28 03:41:15;;;;;;;4.80;1.90;;;14.60;83.10;;;;;;5090793;28;20039;-77
2022/07/28 03:43:41;;;;;;;4.22;2.10;;;14.60;83.10;;;;;;5094051;28;20019;-77
2022/07/28 03:46:07;;;;;;;3.38;2.00;;;14.60;83.60;;;;;;5093044;28;20024;-77
2022/07/28 03:48:33;;;;;;;5.25;2.53;;;14.60;83.60;;;;;;5094239;28;20535;-70
2022/07/28 03:50:59;;;;;;;7.32;2.35;;;14.60;83.40;;;;;;5094136;28;20074;-77
2022/07/28 03:53:27;;;;;;;3.42;1.90;;;14.60;83.60;;;;;;5094078;28;20048;-71
2022/07/28 03:55:53;;;;;;;5.07;1.75;;;14.60;84.80;;;;;;5094166;28;20050;-78
2022/07/28 03:58:20;;;;;;;2.78;2.47;;;14.60;85.10;;;;;;5092734;28;20081;-70
2022/07/28 04:00:47;;;;;;;7.75;2.33;;;14.70;86.20;;;;;;5094016;28;20028;-78
2022/07/28 04:03:13;;;;;;;7.97;2.38;;;14.60;85.30;;;;;;5093879;28;20035;-77
2022/07/28 04:05:38;;;;;;;7.72;3.20;;;14.60;85.20;;;;;;5093904;28;20380;-78
2022/07/28 04:08:05;;;;;;;7.05;2.60;;;14.60;84.80;;;;;;5093836;28;20116;-78
2022/07/28 04:10:30;;;;;;;4.32;1.92;;;14.70;84.20;;;;;;5092600;28;20023;-71
2022/07/28 04:12:58;;;;;;;5.95;2.55;;;14.70;84.50;;;;;;5092459;28;20028;-71
2022/07/28 04:15:24;;;;;;;3.20;1.90;;;14.70;83.70;;;;;;5093697;28;20028;-71
2022/07/28 04:17:52;;;;;;;5.35;2.08;;;14.70;84.20;;;;;;5093547;28;20049;-70
2022/07/28 04:20:19;;;;;;;3.95;2.60;;;14.80;84.10;;;;;;5092521;28;20016;-70
2022/07/28 04:22:46;;;;;;;3.83;2.47;;;14.80;83.70;;;;;;5093623;28;20031;-70
2022/07/28 04:25:13;;;;;;;7.75;2.40;;;14.90;83.20;;;;;;5093535;28;20020;-77
2022/07/28 04:27:39;;;;;;;4.05;2.55;;;14.90;82.90;;;;;;5093357;28;20040;-77
2022/07/28 04:30:07;;;;;;;4.53;2.70;;;15.00;83.00;;;;;;5093535;28;20028;-70
2022/07/28 04:32:33;;;;;;;6.47;3.05;;;15.00;81.80;;;;;;5093740;28;20019;-77
2022/07/28 04:34:59;;;;;;;3.78;2.50;;;15.00;81.10;;;;;;5093519;28;20485;-77
2022/07/28 04:37:26;;;;;;;2.50;2.30;;;15.00;81.20;;;;;;5093403;28;20035;-70
2022/07/28 04:39:52;;;;;;;4.13;3.00;;;15.00;81.90;;;;;;5093374;28;20031;-70
2022/07/28 04:42:18;;;;;;;5.13;2.50;;;15.10;82.10;;;;;;5093123;28;20032;-70
2022/07/28 04:44:44;;;;;;;4.05;2.50;;;15.00;82.40;;;;;;5093163;28;20530;-77
2022/07/28 04:47:12;;;;;;;7.72;2.95;;;15.00;83.20;;;;;;5093360;28;20028;-71
2022/07/28 04:49:38;;;;;;;6.68;3.08;;;15.10;83.40;;;;;;5093268;28;20537;-77
2022/07/28 04:52:05;;;;;;;5.13;3.30;;;15.00;83.90;;;;;;5093175;28;20060;-70
2022/07/28 04:54:30;;;;;;;5.38;2.70;;;15.10;83.60;;;;;;5093213;28;20012;-71
2022/07/28 04:56:56;;;;;;;3.95;2.65;;;15.10;83.10;;;;;;5093348;28;20039;-77
2022/07/28 04:59:22;;;;;;;2.70;2.17;;;15.10;83.20;;;;;;5093059;28;20024;-72
2022/07/28 05:01:47;;;;;;;8.07;3.20;;;15.10;82.30;;;;;;5092892;28;20043;-78
2022/07/28 05:04:13;;;;;;;8.68;2.70;;;15.20;82.10;;;;;;5093107;28;20096;-71
2022/07/28 05:06:39;;;;;;;8.07;3.40;;;15.20;81.00;;;;;;5092981;28;20028;-77
2022/07/28 05:09:04;;;;;;;5.22;2.92;;;15.40;81.10;;;;;;5092935;28;20016;-70
2022/07/28 05:11:30;;;;;;;4.90;2.75;;;15.60;79.90;;;;;;5091376;28;20062;-70
2022/07/28 05:13:56;;;;;;;5.63;3.13;;;15.70;79.10;;;;;;5082651;28;20478;-70
2022/07/28 05:16:21;;;;;;;4.25;2.95;;;15.70;77.70;;;;;;5091116;28;20048;-78
2022/07/28 05:18:47;;;;;;;6.75;2.90;;;15.80;78.00;;;;;;5091905;28;20028;-78
2022/07/28 05:21:13;;;;;;;5.72;3.20;;;15.80;76.00;;;;;;5091498;28;20021;-78
2022/07/28 05:23:38;;;;;;;5.97;2.92;;;15.80;75.90;;;;;;5092617;28;20115;-78
2022/07/28 05:26:05;;;;;;;4.03;2.97;;;16.00;76.70;;;;;;5091389;28;20063;-77
2022/07/28 05:28:32;;;;;;;4.95;3.00;;;16.00;74.80;;;;;;5091252;28;20038;-78
2022/07/28 05:30:58;;;;;;;5.80;3.47;;;16.20;75.00;;;;;;5092783;28;20024;-78
2022/07/28 05:33:24;;;;;;;2.80;2.60;;;16.30;73.30;;;;;;5092665;28;20017;-78
2022/07/28 05:35:53;;;;;;;3.97;3.10;;;16.50;72.50;;;;;;5092752;28;20493;-70
2022/07/28 05:38:19;;;;;;;4.25;2.38;;;16.60;70.70;;;;;;5092617;28;20047;-77
2022/07/28 05:40:47;;;;;;;3.53;2.58;;;16.70;70.50;;;;;;5092654;28;20008;-71
2022/07/28 05:43:13;;;;;;;5.85;3.35;;;16.80;70.90;;;;;;5091295;28;20166;-76
2022/07/28 05:45:38;;;;;;;3.53;2.05;;;16.90;69.90;;;;;;5092584;28;20061;-71
2022/07/28 05:48:04;;;;;;;4.60;2.30;;;16.90;67.90;;;;;;5092445;28;20024;-76
2022/07/28 05:50:30;;;;;;;6.75;2.30;;;17.20;68.40;;;;;;5094876;28;20012;-71
2022/07/28 05:52:56;;;;;;;2.28;2.17;;;17.40;67.00;;;;;;5094735;28;20052;-76
2022/07/28 05:55:21;;;;;;;6.05;2.25;;;17.50;66.40;;;;;;5093973;28;20073;-76
2022/07/28 05:57:47;;;;;;;5.40;2.35;;;17.70;65.80;;;;;;5095897;28;20035;-70
2022/07/28 06:00:16;;;;;;;3.17;2.20;;;17.70;65.30;;;;;;5094860;28;20370;-72
2022/07/28 06:02:47;;;;;;;3.63;1.60;;;17.90;64.50;;;;;;5095817;28;20032;-76
2022/07/28 06:05:17;;;;;;;7.90;2.07;;;17.90;64.60;;;;;;5095748;28;20020;-76
2022/07/28 06:07:44;;;;;;;8.20;2.00;;;18.10;64.10;;;;;;5095749;28;20103;-76
2022/07/28 06:10:14;;;;;;;3.47;2.70;;;18.10;62.00;;;;;;5094168;28;20392;-76
2022/07/28 06:12:52;;;;;;;4.90;1.73;;;18.20;61.40;;;;;;5096023;28;20370;-70
2022/07/28 06:15:20;;;;;;;5.07;1.90;;;18.40;61.50;;;;;;5094735;28;20023;-72
2022/07/28 06:17:47;;;;;;;5.20;1.83;;;18.50;60.40;;;;;;5095853;28;20031;-71
2022/07/28 06:20:13;;;;;;;3.58;2.63;;;18.70;60.40;;;;;;5095806;28;20009;-76
2022/07/28 06:22:42;;;;;;;1.80;1.42;;;18.90;59.50;;;;;;5095604;28;20028;-71
2022/07/28 06:25:30;;;;;;;2.25;1.40;;;19.00;58.90;;;;;;5095721;28;20452;-76
2022/07/28 06:27:57;;;;;;;3.08;1.70;;;19.10;58.50;;;;;;5094332;28;20028;-76
2022/07/28 06:30:24;;;;;;;6.80;2.10;;;19.00;57.70;;;;;;5094944;28;20016;-71
2022/07/28 06:32:50;;;;;;;2.38;1.30;;;19.00;56.60;;;;;;5094433;28;20028;-76
2022/07/28 06:35:16;;;;;;;4.57;1.38;;;19.20;57.30;;;;;;5095695;28;20492;-76
2022/07/28 06:37:43;;;;;;;6.32;1.95;;;19.20;56.80;;;;;;5095652;28;20024;-75
2022/07/28 06:40:12;;;;;;;3.40;1.40;;;19.30;56.00;;;;;;5095526;28;20095;-71
2022/07/28 06:42:39;;;;;;;2.17;1.38;;;19.00;55.80;;;;;;5095354;28;20489;-76
2022/07/28 06:45:05;;;;;;;1.92;1.30;;;19.00;56.60;;;;;;5093902;28;20026;-76
2022/07/28 06:47:31;;;;;;;2.08;1.20;;;19.10;56.50;;;;;;5095290;28;20028;-72
2022/07/28 06:49:57;;;;;;;4.40;1.60;;;19.20;56.50;;;;;;5094032;28;20032;-71
2022/07/28 06:52:23;;;;;;;4.95;1.23;;;19.00;55.60;;;;;;5095230;28;20051;-74
2022/07/28 06:54:50;;;;;;;2.97;1.42;;;19.00;55.80;;;;;;5095111;28;20067;-72
2022/07/28 06:57:17;;;;;;;3.20;1.20;;;18.90;56.30;;;;;;5093759;28;20024;-76
2022/07/28 06:59:43;;;;;;;5.57;1.50;;;18.80;55.60;;;;;;5094581;28;20481;-76
2022/07/28 07:02:08;;;;;;;1.40;1.30;;;18.80;56.10;;;;;;5093565;28;20093;-76
2022/07/28 07:04:34;;;;;;;3.80;1.23;;;18.80;56.40;;;;;;5095239;28;20065;-76
2022/07/28 07:07:00;;;;;;;3.17;1.40;;;18.90;56.00;;;;;;5094959;28;20489;-71
2022/07/28 07:09:26;;;;;;;5.20;1.27;;;19.30;56.80;;;;;;5093680;28;20012;-76
2022/07/28 07:11:51;;;;;;;2.75;1.52;;;19.60;55.60;;;;;;5092612;28;20024;-71
2022/07/28 07:14:17;;;;;;;2.25;1.20;;;19.90;55.40;;;;;;5093916;28;20024;-76
2022/07/28 07:16:43;;;;;;;3.85;1.10;;;19.90;54.10;;;;;;5094330;28;20028;-76
2022/07/28 07:19:08;;;;;;;2.92;1.40;;;20.10;53.70;;;;;;5093129;28;20398;-75
2022/07/28 07:21:34;;;;;;;1.08;0.98;;;20.30;53.20;;;;;;5092125;28;20024;-72
2022/07/28 07:24:00;;;;;;;2.10;0.80;;;20.20;51.60;;;;;;5092888;28;20017;-77
2022/07/28 07:26:26;;;;;;;3.40;1.30;;;20.40;51.30;;;;;;5093487;28;20397;-76
2022/07/28 07:28:51;;;;;;;1.35;1.23;;;20.40;51.70;;;;;;5093162;28;20071;-74
2022/07/28 07:31:17;;;;;;;1.73;1.20;;;20.70;51.80;;;;;;5094184;28;20020;-76
2022/07/28 07:33:43;;;;;;;4.10;1.15;;;20.70;51.90;;;;;;5093379;28;20140;-71
2022/07/28 07:36:08;;;;;;;4.15;1.60;;;20.70;50.80;;;;;;5094140;28;20024;-72
2022/07/28 07:38:34;;;;;;;1.52;1.20;;;20.90;50.60;;;;;;5090967;28;20085;-71
2022/07/28 07:41:00;;;;;;;6.07;1.20;;;21.20;51.20;;;;;;5093391;28;20016;-76
2022/07/28 07:43:26;;;;;;;3.08;1.15;;;21.30;51.20;;;;;;5094111;28;20388;-76
2022/07/28 07:45:52;;;;;;;2.25;1.20;;;21.30;50.70;;;;;;5094122;28;20024;-72
2022/07/28 07:48:18;;;;;;;2.65;1.20;;;21.50;51.10;;;;;;5092942;28;20447;-76
2022/07/28 07:50:43;;;;;;;3.17;1.30;;;21.60;50.50;;;;;;5093830;28;20095;-71
2022/07/28 07:53:09;;;;;;;2.00;1.25;;;21.80;49.90;;;;;;5094090;28;20424;-71
2022/07/28 07:55:35;;;;;;;5.00;1.35;;;21.60;49.60;;;;;;5094033;28;20094;-76
2022/07/28 07:58:01;;;;;;;1.27;1.17;;;21.70;49.60;;;;;;5092589;28;20024;-70
2022/07/28 08:00:27;;;;;;;2.95;1.20;;;21.80;49.90;;;;;;5092600;28;20020;-74
2022/07/28 08:02:52;;;;;;;2.53;1.27;;;21.90;50.10;;;;;;5093842;28;20062;-73
2022/07/28 08:05:18;;;;;;;3.92;1.27;;;21.90;49.70;;;;;;5093886;28;20481;-74
2022/07/28 08:07:44;;;;;;;3.75;2.10;;;21.90;50.10;;;;;;5093780;28;20561;-69
2022/07/28 08:10:10;;;;;;;1.58;1.40;;;22.00;49.70;;;;;;5092592;28;20020;-74
2022/07/28 08:12:36;;;;;;;1.92;1.40;;;22.00;49.70;;;;;;5091719;28;20024;-70
2022/07/28 08:15:03;;;;;;;2.70;1.58;;;22.00;49.60;;;;;;5092230;28;20031;-69
2022/07/28 08:17:29;;;;;;;1.65;1.05;;;22.10;50.00;;;;;;5093531;28;20042;-74
2022/07/28 08:19:55;;;;;;;2.58;1.85;;;22.30;50.00;;;;;;5093764;28;20091;-73
2022/07/28 08:22:21;;;;;;;4.80;1.75;;;22.20;49.10;;;;;;5093302;28;20450;-69
2022/07/28 08:24:46;;;;;;;2.03;1.17;;;22.10;48.80;;;;;;5093615;28;20063;-70
2022/07/28 08:27:12;;;;;;;3.22;0.95;;;22.00;49.00;;;;;;5093389;28;20340;-74
2022/07/28 08:29:38;;;;;;;1.92;1.08;;;22.00;49.90;;;;;;5093600;28;20028;-70
2022/07/28 08:32:03;;;;;;;3.22;1.50;;;21.60;49.60;;;;;;5092014;28;20024;-69
2022/07/28 08:34:30;;;;;;;1.92;1.20;;;22.00;49.20;;;;;;5092233;28;20111;-74
2022/07/28 08:36:56;;;;;;;3.28;1.20;;;22.30;49.40;;;;;;5093350;28;20107;-73
2022/07/28 08:39:22;;;;;;;3.20;1.10;;;22.40;49.00;;;;;;5093281;28;20410;-73
2022/07/28 08:42:07;;;;;;;3.75;1.40;;;22.30;49.70;;;;;;5091538;28;20063;-69
2022/07/28 08:44:53;;;;;;;4.22;1.20;;;22.10;48.90;;;;;;5092097;28;20062;-74
2022/07/28 08:47:20;;;;;;;4.20;2.10;;;22.50;48.00;;;;;;5092020;28;20028;-70
2022/07/28 08:49:48;;;;;;;2.08;1.60;;;22.30;48.20;;;;;;5093277;28;20024;-74
2022/07/28 08:52:14;;;;;;;4.35;1.88;;;22.20;48.50;;;;;;5092807;28;20096;-69
2022/07/28 08:54:42;;;;;;;3.58;1.50;;;22.10;48.30;;;;;;5092019;28;20447;-70
2022/07/28 08:57:15;;;;;;;2.65;1.00;;;22.30;48.40;;;;;;5092992;28;20032;-74
2022/07/28 08:59:41;;;;;;;6.53;1.10;;;22.10;48.20;;;;;;5093334;28;20020;-69
2022/07/28 09:02:11;;;;;;;4.38;1.30;;;21.90;48.40;;;;;;5091657;28;20035;-74
2022/07/28 09:04:38;;;;;;;2.92;1.38;;;21.90;48.40;;;;;;5093309;28;20469;-69
2022/07/28 09:07:05;;;;;;;2.42;1.30;;;22.00;48.30;;;;;;5092963;28;20032;-73
2022/07/28 09:09:31;;;;;;;2.65;1.23;;;22.20;48.20;;;;;;5093268;28;20143;-69
2022/07/28 09:11:58;;;;;;;3.22;1.55;;;22.40;47.70;;;;;;5093006;28;20031;-70
2022/07/28 09:14:24;;;;;;;2.45;1.50;;;22.60;47.20;;;;;;5093046;28;20465;-70
2022/07/28 09:16:50;;;;;;;2.72;1.35;;;22.60;48.00;;;;;;5093112;28;20028;-70
2022/07/28 09:19:16;;;;;;;2.53;1.15;;;22.70;47.50;;;;;;5091895;28;20024;-73
2022/07/28 09:21:42;;;;;;;2.70;1.05;;;22.70;47.30;;;;;;5092779;28;20036;-74
2022/07/28 09:24:08;;;;;;;2.80;1.13;;;23.00;47.00;;;;;;5092787;28;20012;-73
2022/07/28 09:26:33;;;;;;;2.42;1.55;;;22.70;46.60;;;;;;5096822;28;20020;-73
2022/07/28 09:29:02;;;;;;;2.67;1.42;;;22.90;46.70;;;;;;5096728;28;20027;-73
2022/07/28 09:31:29;;;;;;;2.28;1.10;;;23.00;47.00;;;;;;5096790;28;20468;-69
2022/07/28 09:34:02;;;;;;;2.70;1.60;;;23.10;47.00;;;;;;5095472;28;20016;-71
2022/07/28 09:36:29;;;;;;;4.07;1.45;;;23.00;46.80;;;;;;5096872;28;20502;-71
2022/07/28 09:38:55;;;;;;;2.50;1.23;;;23.10;47.30;;;;;;5095229;28;20024;-76
2022/07/28 09:41:22;;;;;;;1.80;1.30;;;23.10;47.20;;;;;;5095311;28;20449;-76
2022/07/28 09:43:49;;;;;;;2.45;1.80;;;23.10;47.00;;;;;;5096569;28;20461;-71
2022/07/28 09:46:16;;;;;;;2.38;1.58;;;23.20;47.00;;;;;;5096514;28;20392;-76
2022/07/28 09:48:48;;;;;;;3.58;1.30;;;23.20;46.70;;;;;;5096461;28;20032;-75
2022/07/28 09:51:15;;;;;;;9.30;2.17;;;23.50;46.30;;;;;;5096170;28;20500;-76
2022/07/28 09:53:42;;;;;;;3.60;1.55;;;23.40;46.10;;;;;;5096354;28;20437;-75
2022/07/28 09:56:09;;;;;;;2.80;1.45;;;23.20;45.80;;;;;;5096427;28;20039;-72
2022/07/28 09:58:36;;;;;;;4.13;1.35;;;23.50;46.10;;;;;;5096280;28;20031;-71
2022/07/28 10:01:22;;;;;;;10.65;2.35;;;23.80;45.70;;;;;;5094805;28;20024;-75
2022/07/28 10:03:51;;;;;;;3.80;1.40;;;23.70;46.00;;;;;;5096298;28;20036;-72
2022/07/28 10:06:25;;;;;;;3.47;1.30;;;23.70;45.60;;;;;;5096204;28;20091;-76
2022/07/28 10:08:53;;;;;;;2.70;1.30;;;23.50;45.70;;;;;;5094827;28;20177;-73
2022/07/28 10:11:25;;;;;;;5.90;1.33;;;23.70;46.20;;;;;;5094765;28;20036;-76
2022/07/28 10:14:05;;;;;;;2.55;1.35;;;23.70;46.00;;;;;;5094795;28;20028;-71
2022/07/28 10:16:40;;;;;;;2.25;1.58;;;23.50;45.70;;;;;;5096188;28;20027;-72
2022/07/28 10:19:06;;;;;;;1.92;1.20;;;23.80;45.90;;;;;;5095919;28;20111;-71
2022/07/28 10:21:38;;;;;;;1.88;1.42;;;23.60;45.70;;;;;;5095778;28;20105;-75
2022/07/28 10:24:06;;;;;;;5.35;2.13;;;23.60;45.90;;;;;;5095798;28;20111;-75
2022/07/28 10:26:42;;;;;;;3.35;1.67;;;23.90;45.50;;;;;;5095889;28;20031;-72
2022/07/28 10:29:14;;;;;;;1.50;1.40;;;24.00;45.30;;;;;;5095621;28;20028;-72
2022/07/28 10:31:59;;;;;;;5.00;1.42;;;24.00;45.10;;;;;;5094403;28;20039;-72
2022/07/28 10:34:36;;;;;;;5.55;1.30;;;23.90;44.50;;;;;;5095574;28;20034;-76
2022/07/28 10:37:05;;;;;;;4.55;1.83;;;24.10;44.80;;;;;;5095645;28;20020;-76
2022/07/28 10:39:39;;;;;;;5.78;1.70;;;24.20;45.20;;;;;;5095485;28;20044;-72
2022/07/28 10:42:09;;;;;;;2.53;1.40;;;24.30;45.00;;;;;;5095079;28;20548;-75
2022/07/28 10:44:36;;;;;;;5.43;1.92;;;24.50;44.70;;;;;;5091740;28;20016;-71
2022/07/28 10:47:09;;;;;;;4.85;1.70;;;24.80;44.30;;;;;;5095392;28;20362;-72
2022/07/28 10:49:36;;;;;;;2.53;1.10;;;24.80;44.40;;;;;;5095448;28;20047;-71
2022/07/28 10:52:05;;;;;;;4.68;1.88;;;24.50;44.30;;;;;;5093730;28;20040;-75
2022/07/28 10:54:35;;;;;;;4.13;1.55;;;24.80;44.00;;;;;;5095174;28;20018;-75
2022/07/28 10:57:04;;;;;;;2.78;1.45;;;24.90;44.90;;;;;;5095265;28;20016;-71
2022/07/28 11:00:08;;;;;;;5.43;1.55;;;25.20;44.60;;;;;;5095112;28;20020;-72
2022/07/28 11:02:44;;;;;;;2.00;1.58;;;25.10;44.40;;;;;;5093697;28;20094;-71
2022/07/28 11:05:38;;;;;;;3.72;1.80;;;25.00;43.60;;;;;;5094960;28;20495;-76
2022/07/28 11:08:25;;;;;;;5.43;1.95;;;25.00;44.00;;;;;;5095136;28;20028;-75
2022/07/28 11:10:52;;;;;;;3.38;1.75;;;24.70;44.10;;;;;;5094980;28;20385;-72
2022/07/28 11:13:29;;;;;;;2.80;1.50;;;24.90;44.00;;;;;;5094821;28;20032;-72
2022/07/28 11:16:17;;;;;;;2.95;1.63;;;24.80;43.80;;;;;;5093614;28;20101;-71
2022/07/28 11:19:05;;;;;;;2.40;1.80;;;24.70;44.10;;;;;;5093524;28;20023;-71
2022/07/28 11:21:32;;;;;;;3.03;1.65;;;24.40;44.20;;;;;;5094688;28;20031;-72
2022/07/28 11:23:57;;;;;;;2.13;1.63;;;24.30;44.30;;;;;;5094659;28;20028;-75
2022/07/28 11:26:23;;;;;;;2.08;1.15;;;24.30;44.90;;;;;;5094664;28;20020;-75
2022/07/28 11:29:09;;;;;;;4.28;1.73;;;24.40;45.00;;;;;;5094543;28;20028;-71
2022/07/28 11:31:44;;;;;;;6.55;1.58;;;24.60;43.80;;;;;;5094711;28;20024;-75
2022/07/28 11:34:10;;;;;;;3.08;1.58;;;24.20;44.40;;;;;;5093161;28;20035;-75
2022/07/28 11:36:56;;;;;;;10.05;2.03;;;24.10;45.00;;;;;;5094548;28;20024;-71
2022/07/28 11:39:26;;;;;;;2.70;1.70;;;24.20;45.00;;;;;;5094193;28;20042;-75
2022/07/28 11:41:52;;;;;;;2.40;1.50;;;24.60;44.40;;;;;;5094388;28;20483;-75
2022/07/28 11:44:26;;;;;;;4.88;1.90;;;25.00;44.40;;;;;;5094203;28;20016;-75
2022/07/28 11:46:52;;;;;;;3.17;1.60;;;25.20;44.70;;;;;;5093591;28;20422;-75
2022/07/28 11:49:20;;;;;;;3.65;1.70;;;25.20;43.40;;;;;;5094184;28;20083;-72
2022/07/28 11:52:12;;;;;;;4.80;1.80;;;25.40;43.00;;;;;;5092608;28;20051;-75
2022/07/28 11:54:39;;;;;;;1.63;1.53;;;25.00;42.90;;;;;;5094087;28;20027;-75
2022/07/28 11:57:08;;;;;;;5.72;1.38;;;24.70;42.90;;;;;;5094040;28;20264;-71
2022/07/28 11:59:48;;;;;;;3.35;2.05;;;24.70;43.30;;;;;;5094113;28;20103;-71
2022/07/28 12:02:19;;;;;;;2.28;1.63;;;24.80;43.50;;;;;;5093815;28;20085;-71
2022/07/28 12:04:54;;;;;;;2.75;1.30;;;25.00;43.40;;;;;;5092711;28;20058;-71
2022/07/28 12:07:29;;;;;;;3.75;1.70;;;25.20;42.50;;;;;;5094015;28;20429;-75
2022/07/28 12:09:55;;;;;;;3.20;1.50;;;25.20;43.40;;;;;;5093884;28;20052;-75
2022/07/28 12:12:21;;;;;;;4.10;1.77;;;25.60;43.50;;;;;;5092477;28;20043;-71
2022/07/28 12:14:46;;;;;;;2.33;1.85;;;25.60;42.90;;;;;;5093757;28;20020;-71
2022/07/28 12:17:13;;;;;;;2.80;1.45;;;25.80;42.10;;;;;;5092301;28;20068;-71
2022/07/28 12:19:39;;;;;;;5.10;1.45;;;26.10;42.20;;;;;;5092398;28;20432;-71
2022/07/28 12:22:11;;;;;;;1.80;1.27;;;26.20;42.30;;;;;;5093543;28;20028;-75
2022/07/28 12:24:37;;;;;;;3.40;1.77;;;26.40;41.80;;;;;;5093710;28;20504;-72
2022/07/28 12:27:03;;;;;;;3.25;1.48;;;26.30;40.90;;;;;;5093570;28;20036;-75
2022/07/28 12:29:32;;;;;;;3.22;1.65;;;26.20;40.70;;;;;;5093547;28;20063;-75
2022/07/28 12:32:00;;;;;;;3.25;1.33;;;26.30;40.40;;;;;;5093515;28;20393;-72
2022/07/28 12:34:27;;;;;;;4.28;1.65;;;26.60;39.90;;;;;;5092223;28;20020;-75
2022/07/28 12:37:03;;;;;;;3.42;1.70;;;26.70;39.80;;;;;;5093514;28;20028;-75
2022/07/28 12:39:32;;;;;;;4.07;1.92;;;26.70;39.60;;;;;;5093416;28;20051;-75
2022/07/28 12:42:10;;;;;;;2.13;1.88;;;26.70;40.00;;;;;;5092089;28;20033;-75
2022/07/28 12:44:40;;;;;;;2.63;1.48;;;26.30;40.80;;;;;;5093229;28;20024;-71
2022/07/28 12:47:07;;;;;;;2.75;1.50;;;26.10;41.40;;;;;;5093423;28;20039;-75
2022/07/28 12:49:36;;;;;;;2.92;1.50;;;25.80;41.70;;;;;;5093314;28;20020;-75
2022/07/28 12:52:22;;;;;;;3.35;1.50;;;25.50;42.10;;;;;;5073021;28;20102;-71
2022/07/28 12:54:48;;;;;;;3.33;1.80;;;25.10;42.70;;;;;;5073107;28;20103;-71
2022/07/28 12:57:14;;;;;;;1.83;1.73;;;24.80;43.00;;;;;;5072909;28;20024;-76
2022/07/28 12:59:40;;;;;;;2.13;1.38;;;24.90;43.60;;;;;;5089515;28;20146;-75